createdAt,value
2018-03-30T00:00:42.310Z,7.30
2018-03-30T00:03:08.687Z,7.20
2018-03-30T00:05:34.959Z,7.20
2018-03-30T00:08:02.004Z,7.20
2018-03-30T00:10:28.303Z,7.20
2018-03-30T00:12:54.595Z,7.40
2018-03-30T00:15:20.963Z,7.20
2018-03-30T00:17:47.234Z,7.10
2018-03-30T00:20:14.316Z,7.30
2018-03-30T00:22:40.633Z,7.30
2018-03-30T00:25:06.979Z,7.40
2018-03-30T00:27:33.330Z,7.20
2018-03-30T00:29:59.652Z,7.00
2018-03-30T00:32:25.986Z,7.10
2018-03-30T00:34:52.290Z,7.20
2018-03-30T00:37:18.572Z,7.10
2018-03-30T00:39:45.022Z,7.10
2018-03-30T00:42:12.047Z,7.20
2018-03-30T00:44:38.420Z,7.10
2018-03-30T00:47:04.722Z,7.30
2018-03-30T00:49:30.996Z,7.10
2018-03-30T00:51:57.323Z,7.30
2018-03-30T00:54:23.595Z,7.30
2018-03-30T00:56:49.879Z,7.30
2018-03-30T00:59:16.145Z,7.30
2018-03-30T01:01:42.432Z,7.00
2018-03-30T01:04:09.444Z,7.20
2018-03-30T01:06:36.501Z,7.10
2018-03-30T01:09:02.805Z,7.10
2018-03-30T01:11:29.055Z,7.30
2018-03-30T01:13:56.068Z,7.30
2018-03-30T01:16:22.351Z,7.40
2018-03-30T01:18:49.350Z,7.30
2018-03-30T01:21:15.608Z,7.20
2018-03-30T01:23:41.898Z,7.40
2018-03-30T01:26:08.168Z,7.40
2018-03-30T01:28:34.443Z,7.00
2018-03-30T01:31:00.708Z,7.20
2018-03-30T01:33:26.987Z,7.20
2018-03-30T01:35:53.959Z,7.20
2018-03-30T01:38:20.208Z,7.20
2018-03-30T01:40:46.443Z,7.10
2018-03-30T01:43:12.699Z,7.40
2018-03-30T01:45:38.920Z,7.20
2018-03-30T01:48:05.165Z,7.30
2018-03-30T01:50:32.139Z,7.20
2018-03-30T01:52:58.379Z,7.10
2018-03-30T01:55:24.608Z,7.20
2018-03-30T01:57:50.855Z,7.30
2018-03-30T02:00:17.125Z,7.20
2018-03-30T02:02:43.356Z,7.20
2018-03-30T02:05:09.597Z,7.20
2018-03-30T02:07:36.563Z,7.20
2018-03-30T02:10:02.856Z,7.10
2018-03-30T02:12:29.099Z,7.30
2018-03-30T02:14:56.119Z,7.20
2018-03-30T02:17:22.355Z,7.30
2018-03-30T02:19:48.623Z,7.20
2018-03-30T02:22:14.887Z,7.10
2018-03-30T02:24:41.139Z,7.40
2018-03-30T02:27:07.389Z,7.20
2018-03-30T02:29:34.359Z,7.10
2018-03-30T02:32:00.611Z,7.00
2018-03-30T02:34:26.857Z,7.00
2018-03-30T02:36:53.116Z,7.00
2018-03-30T02:39:19.348Z,7.10
2018-03-30T02:41:46.321Z,7.30
2018-03-30T02:44:12.583Z,7.10
2018-03-30T02:46:38.837Z,6.90
2018-03-30T02:49:05.118Z,7.00
2018-03-30T02:51:31.348Z,7.30
2018-03-30T02:53:57.597Z,6.80
2018-03-30T02:56:23.832Z,7.40
2018-03-30T02:58:50.102Z,7.00
2018-03-30T03:01:17.076Z,7.20
2018-03-30T03:03:43.337Z,7.10
2018-03-30T03:06:09.580Z,7.30
2018-03-30T03:08:35.834Z,7.10
2018-03-30T03:11:02.818Z,7.10
2018-03-30T03:13:29.056Z,7.00
2018-03-30T03:15:55.306Z,7.20
2018-03-30T03:18:21.556Z,7.00
2018-03-30T03:20:47.799Z,7.10
2018-03-30T03:23:14.796Z,7.20
2018-03-30T03:25:41.061Z,7.30
2018-03-30T03:28:07.292Z,7.30
2018-03-30T03:30:33.536Z,7.30
2018-03-30T03:33:00.535Z,7.30
2018-03-30T03:35:26.759Z,7.20
2018-03-30T03:37:53.005Z,7.20
2018-03-30T03:40:19.258Z,7.20
2018-03-30T03:42:46.256Z,7.20
2018-03-30T03:45:12.512Z,7.20
2018-03-30T03:47:38.756Z,7.30
2018-03-30T03:50:05.016Z,7.30
2018-03-30T03:52:31.301Z,7.10
2018-03-30T03:54:57.603Z,7.30
2018-03-30T03:57:23.855Z,7.20
2018-03-30T03:59:50.108Z,7.40
2018-03-30T04:02:16.351Z,7.30
2018-03-30T04:04:43.362Z,7.30
2018-03-30T04:07:09.591Z,7.20
2018-03-30T04:09:35.831Z,7.20
2018-03-30T04:12:02.070Z,7.10
2018-03-30T04:14:28.318Z,7.30
2018-03-30T04:16:55.311Z,7.30
2018-03-30T04:19:21.567Z,7.10
2018-03-30T04:21:47.827Z,7.10
2018-03-30T04:24:14.846Z,7.30
2018-03-30T04:26:41.112Z,7.20
2018-03-30T04:29:07.346Z,7.20
2018-03-30T04:31:33.604Z,7.30
2018-03-30T04:33:59.842Z,7.20
2018-03-30T04:36:26.067Z,7.20
2018-03-30T04:38:52.325Z,7.00
2018-03-30T04:41:18.560Z,7.00
2018-03-30T04:43:44.799Z,7.20
2018-03-30T04:46:11.779Z,7.30
2018-03-30T04:48:38.044Z,7.20
2018-03-30T04:51:04.302Z,7.20
2018-03-30T04:53:31.315Z,7.00
2018-03-30T04:55:57.584Z,7.30
2018-03-30T04:58:24.587Z,7.20
2018-03-30T05:00:50.818Z,7.30
2018-03-30T05:03:17.071Z,7.40
2018-03-30T05:05:43.315Z,7.10
2018-03-30T05:08:10.299Z,7.30
2018-03-30T05:10:36.551Z,7.40
2018-03-30T05:13:02.805Z,7.20
2018-03-30T05:15:29.804Z,7.30
2018-03-30T05:17:56.056Z,7.10
2018-03-30T05:20:22.320Z,7.10
2018-03-30T05:22:49.351Z,7.10
2018-03-30T05:25:16.403Z,7.20
2018-03-30T05:27:42.630Z,7.10
2018-03-30T05:30:08.883Z,7.30
2018-03-30T05:32:35.844Z,7.30
2018-03-30T05:35:02.116Z,7.50
2018-03-30T05:37:28.354Z,7.50
2018-03-30T05:39:54.599Z,7.40
2018-03-30T05:42:20.855Z,7.50
2018-03-30T05:44:47.087Z,7.70
2018-03-30T05:47:13.334Z,7.50
2018-03-30T05:49:39.583Z,7.60
2018-03-30T05:52:05.851Z,7.50
2018-03-30T05:54:32.835Z,7.60
2018-03-30T05:56:59.089Z,7.60
2018-03-30T05:59:25.318Z,7.50
2018-03-30T06:01:51.575Z,7.60
2018-03-30T06:04:17.808Z,7.50
2018-03-30T06:06:44.811Z,7.60
2018-03-30T06:09:11.052Z,7.90
2018-03-30T06:11:37.275Z,7.80
2018-03-30T06:14:03.570Z,8.00
2018-03-30T06:16:29.800Z,8.20
2018-03-30T06:18:56.062Z,8.20
2018-03-30T06:21:22.296Z,8.10
2018-03-30T06:23:48.579Z,8.20
2018-03-30T06:26:14.840Z,8.20
2018-03-30T06:28:41.107Z,8.10
2018-03-30T06:31:07.355Z,8.20
2018-03-30T06:33:34.329Z,8.00
2018-03-30T06:36:00.571Z,7.90
2018-03-30T06:38:26.799Z,7.80
2018-03-30T06:40:53.064Z,7.90
2018-03-30T06:43:19.306Z,8.10
2018-03-30T06:45:45.555Z,8.00
2018-03-30T06:48:11.830Z,8.50
2018-03-30T06:50:38.856Z,8.60
2018-03-30T06:53:05.109Z,8.60
2018-03-30T06:55:31.363Z,8.80
2018-03-30T06:57:57.599Z,9.20
2018-03-30T07:00:24.597Z,8.80
2018-03-30T07:02:50.863Z,9.10
2018-03-30T07:05:17.111Z,9.10
2018-03-30T07:07:51.199Z,10.30
2018-03-30T07:10:17.445Z,10.10
2018-03-30T07:12:43.697Z,10.50
2018-03-30T07:15:09.923Z,10.60
2018-03-30T07:17:36.186Z,10.40
2018-03-30T07:20:02.422Z,10.80
2018-03-30T07:22:28.696Z,10.30
2018-03-30T07:24:55.676Z,9.90
2018-03-30T07:27:21.910Z,10.00
2018-03-30T07:29:48.158Z,9.70
2018-03-30T07:32:14.412Z,9.60
2018-03-30T07:34:40.670Z,9.60
2018-03-30T07:37:07.667Z,10.40
2018-03-30T07:42:31.819Z,10.50
2018-03-30T07:44:58.085Z,10.60
2018-03-30T07:47:24.330Z,11.20
2018-03-30T07:49:50.619Z,10.90
2018-03-30T07:52:16.879Z,11.50
2018-03-30T07:54:43.110Z,11.60
2018-03-30T07:57:09.370Z,11.60
2018-03-30T07:59:35.605Z,11.30
2018-03-30T08:02:02.607Z,11.80
2018-03-30T08:04:28.864Z,11.80
2018-03-30T08:06:55.127Z,12.10
2018-03-30T08:09:22.125Z,11.80
2018-03-30T08:11:48.407Z,11.70
2018-03-30T08:14:14.660Z,12.30
2018-03-30T08:16:40.929Z,11.80
2018-03-30T08:19:07.167Z,12.20
2018-03-30T08:21:34.147Z,13.00
2018-03-30T08:24:00.439Z,12.70
2018-03-30T08:26:27.428Z,13.10
2018-03-30T08:28:53.710Z,13.10
2018-03-30T08:31:19.959Z,12.60
2018-03-30T08:33:46.989Z,12.40
2018-03-30T08:36:13.239Z,12.50
2018-03-30T08:38:40.240Z,13.30
2018-03-30T08:41:06.498Z,13.20
2018-03-30T08:43:32.791Z,14.30
2018-03-30T08:45:59.066Z,13.90
2018-03-30T08:48:26.075Z,13.50
2018-03-30T08:50:52.338Z,13.20
2018-03-30T08:53:19.348Z,13.10
2018-03-30T08:55:45.622Z,13.20
2018-03-30T08:58:12.605Z,12.90
2018-03-30T09:00:38.870Z,12.70
2018-03-30T09:03:05.111Z,13.70
2018-03-30T09:05:31.383Z,13.80
2018-03-30T09:07:57.672Z,14.30
2018-03-30T09:10:23.932Z,14.20
2018-03-30T09:12:50.174Z,14.20
2018-03-30T09:15:16.422Z,14.40
2018-03-30T09:17:42.757Z,14.30
2018-03-30T09:20:09.083Z,13.70
2018-03-30T09:22:35.469Z,14.30
2018-03-30T09:25:02.487Z,14.40
2018-03-30T09:27:28.749Z,14.30
2018-03-30T09:29:55.747Z,14.60
2018-03-30T09:32:22.046Z,14.80
2018-03-30T09:34:48.295Z,14.60
2018-03-30T09:37:14.540Z,14.70
2018-03-30T09:39:40.807Z,15.00
2018-03-30T09:42:07.799Z,14.80
2018-03-30T09:44:40.907Z,14.70
2018-03-30T09:47:07.169Z,14.80
2018-03-30T09:49:34.175Z,14.40
2018-03-30T09:52:00.436Z,14.40
2018-03-30T09:54:26.691Z,14.40
2018-03-30T09:56:53.062Z,14.80
2018-03-30T09:59:20.036Z,14.80
2018-03-30T10:01:51.307Z,14.70
2018-03-30T10:04:22.224Z,14.80
2018-03-30T10:06:48.494Z,14.70
2018-03-30T10:09:14.775Z,14.40
2018-03-30T10:11:41.083Z,15.30
2018-03-30T10:14:07.335Z,15.00
2018-03-30T10:16:33.576Z,14.70
2018-03-30T10:18:59.854Z,14.80
2018-03-30T10:21:26.104Z,14.80
2018-03-30T10:23:52.386Z,14.80
2018-03-30T10:26:19.367Z,15.70
2018-03-30T10:28:45.658Z,15.40
2018-03-30T10:31:12.658Z,16.20
2018-03-30T10:33:38.907Z,16.10
2018-03-30T10:36:05.216Z,16.00
2018-03-30T10:38:32.202Z,15.50
2018-03-30T10:40:58.450Z,15.60
2018-03-30T10:43:25.427Z,16.10
2018-03-30T10:45:51.676Z,16.20
2018-03-30T10:48:17.923Z,16.20
2018-03-30T10:50:44.175Z,16.80
2018-03-30T10:53:11.168Z,16.80
2018-03-30T10:55:37.428Z,16.30
2018-03-30T10:58:03.671Z,16.30
2018-03-30T11:00:30.704Z,16.60
2018-03-30T11:02:56.975Z,16.50
2018-03-30T11:05:24.014Z,16.30
2018-03-30T11:07:50.243Z,16.20
2018-03-30T11:10:17.236Z,17.00
2018-03-30T11:12:43.507Z,17.00
2018-03-30T11:15:10.503Z,16.70
2018-03-30T11:17:36.776Z,16.60
2018-03-30T11:20:03.027Z,16.20
2018-03-30T11:22:29.312Z,17.00
2018-03-30T11:24:55.568Z,17.20
2018-03-30T11:27:21.872Z,17.10
2018-03-30T11:29:48.131Z,16.90
2018-03-30T11:32:14.387Z,16.90
2018-03-30T11:34:40.663Z,17.00
2018-03-30T11:37:06.908Z,16.30
2018-03-30T11:39:33.173Z,15.70
2018-03-30T11:41:59.430Z,16.20
2018-03-30T11:44:25.779Z,15.50
2018-03-30T11:46:52.036Z,15.70
2018-03-30T11:49:18.282Z,15.50
2018-03-30T11:51:44.610Z,15.70
2018-03-30T11:54:11.610Z,15.40
2018-03-30T11:56:37.896Z,15.60
2018-03-30T11:59:04.881Z,14.90
2018-03-30T12:01:31.144Z,14.90
2018-03-30T12:03:58.144Z,14.70
2018-03-30T12:06:24.415Z,14.80
2018-03-30T12:08:51.403Z,14.80
2018-03-30T12:11:17.664Z,14.80
2018-03-30T12:13:43.903Z,14.80
2018-03-30T12:16:10.144Z,14.90
2018-03-30T12:18:36.423Z,14.80
2018-03-30T12:21:02.704Z,15.40
2018-03-30T12:23:28.987Z,15.30
2018-03-30T12:25:55.256Z,15.20
2018-03-30T12:28:21.518Z,14.80
2018-03-30T12:33:46.600Z,14.80
2018-03-30T12:36:12.896Z,14.60
2018-03-30T12:38:39.227Z,15.30
2018-03-30T12:41:05.573Z,14.80
2018-03-30T12:43:31.813Z,14.80
2018-03-30T12:45:58.106Z,14.80
2018-03-30T12:48:24.363Z,14.70
2018-03-30T12:50:50.644Z,14.80
2018-03-30T12:53:17.664Z,14.90
2018-03-30T12:55:43.955Z,15.10
2018-03-30T12:58:10.212Z,15.20
2018-03-30T13:00:36.461Z,15.50
2018-03-30T13:03:02.758Z,14.80
2018-03-30T13:05:29.058Z,14.80
2018-03-30T13:07:55.308Z,14.80
2018-03-30T13:10:21.565Z,14.20
2018-03-30T13:12:47.861Z,14.70
2018-03-30T13:15:14.154Z,14.70
2018-03-30T13:17:41.188Z,15.20
2018-03-30T13:20:07.458Z,14.70
2018-03-30T13:22:33.736Z,14.80
2018-03-30T13:24:59.980Z,14.80
2018-03-30T13:27:26.241Z,14.80
2018-03-30T13:29:52.563Z,15.10
2018-03-30T13:32:19.627Z,14.70
2018-03-30T13:34:45.904Z,14.60
2018-03-30T13:37:12.155Z,14.90
2018-03-30T13:39:38.430Z,14.80
2018-03-30T13:42:04.693Z,15.20
2018-03-30T13:44:30.958Z,14.70
2018-03-30T13:46:57.992Z,14.90
2018-03-30T13:49:25.003Z,15.20
2018-03-30T13:52:21.056Z,15.40
2018-03-30T13:54:49.303Z,15.40
2018-03-30T14:00:38.685Z,14.90
2018-03-30T14:03:06.807Z,14.90
2018-03-30T14:05:37.632Z,15.40
2018-03-30T14:08:13.826Z,15.30
2018-03-30T14:10:43.882Z,14.70
2018-03-30T14:13:10.171Z,15.00
2018-03-30T14:15:42.935Z,14.80
2018-03-30T14:18:16.099Z,14.80
2018-03-30T14:20:42.423Z,14.80
2018-03-30T14:23:15.421Z,14.80
2018-03-30T14:25:47.419Z,14.70
2018-03-30T14:28:16.518Z,14.90
2018-03-30T14:30:50.555Z,14.70
2018-03-30T14:33:21.503Z,14.70
2018-03-30T14:39:00.612Z,14.50
2018-03-30T14:41:27.651Z,14.30
2018-03-30T14:43:54.967Z,14.40
2018-03-30T14:46:37.141Z,14.30
2018-03-30T14:49:05.335Z,14.40
2018-03-30T14:54:34.237Z,14.20
2018-03-30T14:57:07.512Z,14.10
2018-03-30T14:59:50.348Z,14.40
2018-03-30T15:05:33.204Z,14.40
2018-03-30T15:08:06.517Z,14.20
2018-03-30T15:10:52.424Z,14.00
2018-03-30T15:13:20.693Z,14.40
2018-03-30T15:18:58.299Z,14.30
2018-03-30T15:21:27.631Z,14.40
2018-03-30T15:23:54.710Z,14.30
2018-03-30T15:30:03.627Z,14.10
2018-03-30T15:32:32.540Z,14.30
2018-03-30T15:34:58.824Z,14.10
2018-03-30T15:37:26.856Z,14.40
2018-03-30T15:39:58.080Z,14.30
2018-03-30T15:45:25.353Z,14.30
2018-03-30T15:47:51.735Z,14.40
2018-03-30T15:50:18.020Z,14.30
2018-03-30T15:52:44.303Z,14.40
2018-03-30T15:55:10.596Z,14.00
2018-03-30T15:57:36.899Z,14.00
2018-03-30T16:00:06.037Z,14.10
2018-03-30T16:02:32.586Z,14.30
2018-03-30T16:04:58.904Z,14.30
2018-03-30T16:07:25.308Z,14.30
2018-03-30T16:09:52.435Z,13.90
2018-03-30T16:12:30.253Z,14.00
2018-03-30T16:14:57.309Z,14.10
2018-03-30T16:17:23.609Z,14.60
2018-03-30T16:19:50.461Z,14.30
2018-03-30T16:22:16.497Z,14.00
2018-03-30T16:24:43.323Z,14.30
2018-03-30T16:27:09.379Z,14.10
2018-03-30T16:29:35.473Z,14.20
2018-03-30T16:32:02.271Z,14.60
2018-03-30T16:34:28.319Z,14.30
2018-03-30T16:36:54.398Z,14.40
2018-03-30T16:39:20.472Z,14.10
2018-03-30T16:41:46.539Z,14.10
2018-03-30T16:44:12.630Z,14.30
2018-03-30T16:46:38.686Z,14.10
2018-03-30T16:49:04.755Z,14.10
2018-03-30T16:51:30.810Z,13.70
2018-03-30T16:53:57.011Z,13.90
2018-03-30T16:56:23.082Z,13.80
2018-03-30T16:58:49.890Z,14.00
2018-03-30T17:01:15.999Z,13.60
2018-03-30T17:03:42.087Z,13.80
2018-03-30T17:06:08.888Z,13.90
2018-03-30T17:08:35.245Z,13.80
2018-03-30T17:11:01.768Z,13.60
2018-03-30T17:13:28.891Z,13.70
2018-03-30T17:15:54.963Z,13.80
2018-03-30T17:18:21.786Z,13.60
2018-03-30T17:20:48.076Z,13.80
2018-03-30T17:23:14.342Z,13.50
2018-03-30T17:25:41.267Z,13.50
2018-03-30T17:28:08.119Z,13.70
2018-03-30T17:30:34.173Z,13.60
2018-03-30T17:33:01.022Z,13.40
2018-03-30T17:35:27.118Z,13.20
2018-03-30T17:37:53.164Z,13.20
2018-03-30T17:40:20.034Z,13.10
2018-03-30T17:42:46.807Z,13.10
2018-03-30T17:45:12.924Z,13.30
2018-03-30T17:47:38.938Z,13.10
2018-03-30T17:50:05.035Z,13.00
2018-03-30T17:52:31.107Z,13.10
2018-03-30T17:54:57.896Z,13.10
2018-03-30T17:57:24.691Z,13.00
2018-03-30T17:59:50.756Z,13.30
2018-03-30T18:02:17.567Z,13.00
2018-03-30T18:04:43.608Z,12.70
2018-03-30T18:07:09.655Z,12.80
2018-03-30T18:09:36.454Z,12.60
2018-03-30T18:12:02.506Z,12.50
2018-03-30T18:14:28.572Z,12.30
2018-03-30T18:16:54.687Z,11.90
2018-03-30T18:19:20.791Z,11.90
2018-03-30T18:21:47.599Z,12.00
2018-03-30T18:24:13.664Z,11.90
2018-03-30T18:26:40.476Z,11.80
2018-03-30T18:29:06.536Z,11.80
2018-03-30T18:31:33.353Z,12.00
2018-03-30T18:33:59.398Z,11.90
2018-03-30T18:36:26.198Z,11.80
2018-03-30T18:38:52.243Z,11.90
2018-03-30T18:41:18.319Z,11.70
2018-03-30T18:43:44.446Z,11.60
2018-03-30T18:46:10.548Z,11.70
2018-03-30T18:48:36.610Z,11.60
2018-03-30T18:51:02.655Z,11.30
2018-03-30T18:53:28.717Z,11.40
2018-03-30T18:55:55.528Z,11.20
2018-03-30T18:58:21.584Z,11.40
2018-03-30T19:00:48.390Z,11.50
2018-03-30T19:03:14.431Z,11.50
2018-03-30T19:05:40.479Z,11.40
2018-03-30T19:08:07.266Z,11.30
2018-03-30T19:10:33.657Z,11.50
2018-03-30T19:12:59.731Z,11.40
2018-03-30T19:15:25.799Z,11.40
2018-03-30T19:17:52.591Z,11.40
2018-03-30T19:20:18.649Z,11.30
2018-03-30T19:22:44.699Z,11.20
2018-03-30T19:25:10.770Z,11.00
2018-03-30T19:27:36.842Z,10.90
2018-03-30T19:30:03.627Z,11.00
2018-03-30T19:32:29.667Z,10.80
2018-03-30T19:34:55.739Z,10.40
2018-03-30T19:37:21.803Z,10.70
2018-03-30T19:39:47.873Z,10.60
2018-03-30T19:42:14.722Z,10.70
2018-03-30T19:44:41.867Z,10.60
2018-03-30T19:47:08.717Z,10.70
2018-03-30T19:49:35.515Z,10.70
2018-03-30T19:52:02.340Z,10.70
2018-03-30T19:54:28.397Z,10.70
2018-03-30T19:56:54.462Z,10.60
2018-03-30T19:59:20.500Z,10.70
2018-03-30T20:01:46.561Z,10.70
2018-03-30T20:04:12.612Z,10.40
2018-03-30T20:06:39.406Z,10.40
2018-03-30T20:09:05.474Z,10.20
2018-03-30T20:11:31.530Z,10.30
2018-03-30T20:13:57.587Z,10.00
2018-03-30T20:16:23.642Z,10.10
2018-03-30T20:18:49.711Z,10.30
2018-03-30T20:21:15.755Z,10.10
2018-03-30T20:23:41.817Z,10.30
2018-03-30T20:26:07.868Z,10.20
2018-03-30T20:28:34.656Z,9.90
2018-03-30T20:31:00.735Z,10.00
2018-03-30T20:33:27.503Z,10.00
2018-03-30T20:35:53.575Z,9.90
2018-03-30T20:38:19.612Z,9.80
2018-03-30T20:40:46.424Z,10.30
2018-03-30T20:43:12.480Z,10.30
2018-03-30T20:45:39.262Z,9.90
2018-03-30T20:48:05.332Z,9.90
2018-03-30T20:50:31.380Z,9.90
2018-03-30T20:52:57.439Z,9.90
2018-03-30T20:55:23.503Z,10.00
2018-03-30T20:57:49.571Z,10.30
2018-03-30T21:00:15.624Z,9.90
2018-03-30T21:02:41.659Z,10.10
2018-03-30T21:05:07.712Z,10.30
2018-03-30T21:07:33.761Z,10.30
2018-03-30T21:10:01.100Z,9.90
2018-03-30T21:12:27.954Z,9.90
2018-03-30T21:14:54.010Z,10.00
2018-03-30T21:17:20.071Z,9.90
2018-03-30T21:19:46.111Z,10.10
2018-03-30T21:22:12.924Z,9.60
2018-03-30T21:24:38.991Z,9.80
2018-03-30T21:27:05.795Z,9.90
2018-03-30T21:29:31.839Z,9.90
2018-03-30T21:31:57.906Z,10.00
2018-03-30T21:34:24.114Z,10.20
2018-03-30T21:36:50.886Z,9.60
2018-03-30T21:39:17.019Z,9.60
2018-03-30T21:41:43.056Z,9.50
2018-03-30T21:44:09.431Z,9.90
2018-03-30T21:46:36.228Z,9.70
2018-03-30T21:49:02.288Z,9.70
2018-03-30T21:51:29.092Z,9.60
2018-03-30T21:53:55.143Z,9.80
2018-03-30T21:56:21.217Z,9.80
2018-03-30T21:58:47.283Z,9.90
2018-03-30T22:01:13.375Z,9.70
2018-03-30T22:03:39.423Z,9.90
2018-03-30T22:06:05.471Z,9.70
2018-03-30T22:08:31.535Z,9.50
2018-03-30T22:10:57.588Z,9.90
2018-03-30T22:13:23.655Z,9.80
2018-03-30T22:15:50.442Z,9.30
2018-03-30T22:18:17.226Z,9.30
2018-03-30T22:20:43.291Z,9.50
2018-03-30T22:23:09.351Z,9.50
2018-03-30T22:25:35.424Z,9.90
2018-03-30T22:28:02.199Z,9.60
2018-03-30T22:30:28.238Z,9.90
2018-03-30T22:32:54.299Z,9.60
2018-03-30T22:35:20.332Z,9.50
2018-03-30T22:37:47.282Z,9.30
2018-03-30T22:40:14.080Z,9.20
2018-03-30T22:42:40.120Z,9.40
2018-03-30T22:45:06.202Z,9.50
2018-03-30T22:47:32.256Z,9.40
2018-03-30T22:49:58.336Z,9.20
2018-03-30T22:52:24.374Z,9.30
2018-03-30T22:54:51.160Z,9.30
2018-03-30T22:57:17.243Z,9.20
2018-03-30T22:59:43.291Z,9.20
2018-03-30T23:02:09.377Z,9.50
2018-03-30T23:04:35.451Z,9.30
2018-03-30T23:07:01.562Z,9.20
2018-03-30T23:09:27.639Z,9.50
2018-03-30T23:11:54.490Z,9.20
2018-03-30T23:14:21.297Z,9.40
2018-03-30T23:16:47.338Z,9.30
2018-03-30T23:19:14.136Z,9.20
2018-03-30T23:21:40.199Z,9.60
2018-03-30T23:24:06.263Z,9.20
2018-03-30T23:26:32.326Z,9.20
2018-03-30T23:28:58.407Z,9.20
2018-03-30T23:31:24.499Z,9.30
2018-03-30T23:33:50.555Z,9.30
2018-03-30T23:36:16.683Z,9.50
2018-03-30T23:38:42.775Z,9.50
2018-03-30T23:41:08.920Z,9.30
2018-03-30T23:43:35.711Z,8.90
2018-03-30T23:46:01.740Z,8.90
2018-03-30T23:48:27.788Z,8.80
2018-03-30T23:50:53.875Z,9.10
2018-03-30T23:53:19.954Z,9.10
2018-03-30T23:55:46.734Z,8.90
2018-03-30T23:58:12.798Z,9.20
